sensor_id;sensor_type;location;lat;lon;timestamp;pressure;altitude;pressure_sealevel;temperature;humidity
33845;BME280;20145;43.118;25.694;2023-01-13T00:00:21;100124.09;;;2.88;92.15
33845;BME280;20145;43.118;25.694;2023-01-13T00:02:47;100114.03;;;2.93;93.10
33845;BME280;20145;43.118;25.694;2023-01-13T00:05:12;100134.94;;;3.09;93.21
33845;BME280;20145;43.118;25.694;2023-01-13T00:07:38;100126.84;;;3.23;92.08
33845;BME280;20145;43.118;25.694;2023-01-13T00:10:07;100143.41;;;3.37;92.03
33845;BME280;20145;43.118;25.694;2023-01-13T00:12:33;100146.94;;;3.42;92.04
33845;BME280;20145;43.118;25.694;2023-01-13T00:14:58;100139.25;;;3.41;91.65
33845;BME280;20145;43.118;25.694;2023-01-13T00:17:24;100142.78;;;3.46;91.58
33845;BME280;20145;43.118;25.694;2023-01-13T00:19:50;100139.59;;;3.53;91.55
33845;BME280;20145;43.118;25.694;2023-01-13T00:22:15;100133.94;;;3.63;90.68
33845;BME280;20145;43.118;25.694;2023-01-13T00:24:41;100133.25;;;3.69;90.84
33845;BME280;20145;43.118;25.694;2023-01-13T00:27:06;100122.34;;;3.74;89.87
33845;BME280;20145;43.118;25.694;2023-01-13T00:29:32;100135.00;;;3.71;89.60
33845;BME280;20145;43.118;25.694;2023-01-13T00:31:58;100137.28;;;3.61;89.42
33845;BME280;20145;43.118;25.694;2023-01-13T00:34:23;100138.22;;;3.64;89.33
33845;BME280;20145;43.118;25.694;2023-01-13T00:36:49;100139.03;;;3.63;89.55
33845;BME280;20145;43.118;25.694;2023-01-13T00:39:15;100139.13;;;3.66;89.49
33845;BME280;20145;43.118;25.694;2023-01-13T00:41:40;100134.91;;;3.68;89.97
33845;BME280;20145;43.118;25.694;2023-01-13T00:44:24;100127.44;;;3.74;89.15
33845;BME280;20145;43.118;25.694;2023-01-13T00:46:50;100140.22;;;3.76;89.40
33845;BME280;20145;43.118;25.694;2023-01-13T00:49:15;100134.41;;;3.80;89.22
33845;BME280;20145;43.118;25.694;2023-01-13T00:51:41;100130.88;;;3.76;90.05
33845;BME280;20145;43.118;25.694;2023-01-13T00:54:06;100131.56;;;3.71;89.19
33845;BME280;20145;43.118;25.694;2023-01-13T00:56:32;100135.81;;;3.70;89.90
33845;BME280;20145;43.118;25.694;2023-01-13T00:58:57;100123.16;;;3.73;90.23
33845;BME280;20145;43.118;25.694;2023-01-13T01:01:24;100127.44;;;3.74;90.17
33845;BME280;20145;43.118;25.694;2023-01-13T01:03:51;100125.00;;;3.79;89.73
33845;BME280;20145;43.118;25.694;2023-01-13T01:06:22;100125.84;;;3.79;89.69
33845;BME280;20145;43.118;25.694;2023-01-13T01:08:48;100120.66;;;3.76;89.18
33845;BME280;20145;43.118;25.694;2023-01-13T01:11:20;100120.66;;;3.76;89.37
33845;BME280;20145;43.118;25.694;2023-01-13T01:13:46;100125.13;;;3.84;89.20
33845;BME280;20145;43.118;25.694;2023-01-13T01:16:14;100120.03;;;3.84;90.33
33845;BME280;20145;43.118;25.694;2023-01-13T01:18:43;100109.75;;;3.82;90.44
33845;BME280;20145;43.118;25.694;2023-01-13T01:21:10;100102.94;;;3.81;89.70
33845;BME280;20145;43.118;25.694;2023-01-13T01:23:36;100115.16;;;3.93;90.16
33845;BME280;20145;43.118;25.694;2023-01-13T01:28:33;100109.69;;;3.79;90.25
33845;BME280;20145;43.118;25.694;2023-01-13T01:30:59;100101.66;;;3.65;89.15
33845;BME280;20145;43.118;25.694;2023-01-13T01:33:26;100104.25;;;3.67;90.09
33845;BME280;20145;43.118;25.694;2023-01-13T01:35:53;100104.34;;;3.70;89.73
33845;BME280;20145;43.118;25.694;2023-01-13T01:38:19;100102.63;;;3.69;89.35
33845;BME280;20145;43.118;25.694;2023-01-13T01:40:46;100100.94;;;3.69;89.80
33845;BME280;20145;43.118;25.694;2023-01-13T01:43:16;100101.94;;;3.76;89.90
33845;BME280;20145;43.118;25.694;2023-01-13T01:46:01;100087.41;;;3.72;90.77
33845;BME280;20145;43.118;25.694;2023-01-13T01:48:29;100097.06;;;3.84;89.67
33845;BME280;20145;43.118;25.694;2023-01-13T01:50:56;100102.84;;;3.78;89.22
33845;BME280;20145;43.118;25.694;2023-01-13T01:53:23;100089.94;;;3.72;90.41
33845;BME280;20145;43.118;25.694;2023-01-13T01:55:51;100101.09;;;3.75;90.41
33845;BME280;20145;43.118;25.694;2023-01-13T01:58:20;100106.81;;;3.67;91.14
33845;BME280;20145;43.118;25.694;2023-01-13T02:00:46;100093.13;;;3.63;91.55
33845;BME280;20145;43.118;25.694;2023-01-13T02:03:14;100099.19;;;3.68;91.10
33845;BME280;20145;43.118;25.694;2023-01-13T02:05:40;100096.72;;;3.71;91.72
33845;BME280;20145;43.118;25.694;2023-01-13T02:08:07;100097.59;;;3.72;91.57
33845;BME280;20145;43.118;25.694;2023-01-13T02:10:35;100099.31;;;3.73;91.33
33845;BME280;20145;43.118;25.694;2023-01-13T02:13:03;100097.38;;;3.64;91.94
33845;BME280;20145;43.118;25.694;2023-01-13T02:15:44;100095.53;;;3.58;92.87
33845;BME280;20145;43.118;25.694;2023-01-13T02:21:36;100106.03;;;3.69;92.67
33845;BME280;20145;43.118;25.694;2023-01-13T02:30:41;100100.88;;;3.68;91.94
33845;BME280;20145;43.118;25.694;2023-01-13T02:39:06;100104.28;;;3.68;93.49
33845;BME280;20145;43.118;25.694;2023-01-13T02:41:47;100094.09;;;3.68;92.95
33845;BME280;20145;43.118;25.694;2023-01-13T02:44:50;100107.84;;;3.73;93.38
33845;BME280;20145;43.118;25.694;2023-01-13T02:47:23;100107.09;;;3.77;93.79
33845;BME280;20145;43.118;25.694;2023-01-13T02:49:55;100104.56;;;3.79;93.03
33845;BME280;20145;43.118;25.694;2023-01-13T02:52:32;100099.47;;;3.79;92.57
33845;BME280;20145;43.118;25.694;2023-01-13T02:55:11;100102.09;;;3.80;92.78
33845;BME280;20145;43.118;25.694;2023-01-13T02:57:40;100094.28;;;3.76;92.23
33845;BME280;20145;43.118;25.694;2023-01-13T03:00:09;100081.31;;;3.68;91.88
33845;BME280;20145;43.118;25.694;2023-01-13T03:02:35;100101.00;;;3.72;91.70
33845;BME280;20145;43.118;25.694;2023-01-13T03:05:01;100096.72;;;3.71;91.74
33845;BME280;20145;43.118;25.694;2023-01-13T03:07:54;100101.88;;;3.73;92.46
33845;BME280;20145;43.118;25.694;2023-01-13T03:19:04;100096.81;;;3.74;93.16
33845;BME280;20145;43.118;25.694;2023-01-13T03:24:32;100090.03;;;3.76;92.27
33845;BME280;20145;43.118;25.694;2023-01-13T03:29:58;100097.88;;;3.83;92.02
33845;BME280;20145;43.118;25.694;2023-01-13T03:32:34;100102.09;;;3.80;92.64
33845;BME280;20145;43.118;25.694;2023-01-13T03:38:04;100102.00;;;3.77;93.17
33845;BME280;20145;43.118;25.694;2023-01-13T03:40:44;100106.13;;;3.74;92.33
33845;BME280;20145;43.118;25.694;2023-01-13T03:43:17;100105.25;;;3.72;93.40
33845;BME280;20145;43.118;25.694;2023-01-13T03:46:07;100111.16;;;3.71;93.20
33845;BME280;20145;43.118;25.694;2023-01-13T03:48:37;100110.94;;;3.62;92.98
33845;BME280;20145;43.118;25.694;2023-01-13T03:51:07;100110.06;;;3.61;93.06
33845;BME280;20145;43.118;25.694;2023-01-13T03:53:42;100119.13;;;3.50;93.02
33845;BME280;20145;43.118;25.694;2023-01-13T03:56:30;100117.34;;;3.47;94.25
33845;BME280;20145;43.118;25.694;2023-01-13T03:59:01;100119.97;;;3.50;93.37
33845;BME280;20145;43.118;25.694;2023-01-13T04:01:49;100121.59;;;3.47;94.84
33845;BME280;20145;43.118;25.694;2023-01-13T04:04:32;100126.47;;;3.39;93.64
33845;BME280;20145;43.118;25.694;2023-01-13T04:09:53;100137.53;;;3.40;94.85
33845;BME280;20145;43.118;25.694;2023-01-13T04:15:15;100136.69;;;3.41;94.87
33845;BME280;20145;43.118;25.694;2023-01-13T04:17:41;100142.69;;;3.43;95.38
33845;BME280;20145;43.118;25.694;2023-01-13T04:20:08;100130.78;;;3.42;94.91
33845;BME280;20145;43.118;25.694;2023-01-13T04:22:33;100143.69;;;3.48;94.31
33845;BME280;20145;43.118;25.694;2023-01-13T04:24:59;100131.88;;;3.50;94.40
33845;BME280;20145;43.118;25.694;2023-01-13T04:27:24;100139.59;;;3.53;94.12
33845;BME280;20145;43.118;25.694;2023-01-13T04:29:50;100133.66;;;3.54;93.65
33845;BME280;20145;43.118;25.694;2023-01-13T04:32:15;100133.63;;;3.52;94.11
33845;BME280;20145;43.118;25.694;2023-01-13T04:34:41;100131.19;;;3.57;94.09
33845;BME280;20145;43.118;25.694;2023-01-13T04:37:06;100131.34;;;3.62;93.92
33845;BME280;20145;43.118;25.694;2023-01-13T04:39:32;100122.75;;;3.58;94.21
33845;BME280;20145;43.118;25.694;2023-01-13T04:41:57;100122.84;;;3.63;93.68
33845;BME280;20145;43.118;25.694;2023-01-13T04:44:25;100134.09;;;3.69;93.78
33845;BME280;20145;43.118;25.694;2023-01-13T04:46:51;100133.31;;;3.72;93.21
33845;BME280;20145;43.118;25.694;2023-01-13T04:49:16;100131.72;;;3.75;92.90
33845;BME280;20145;43.118;25.694;2023-01-13T04:51:42;100138.59;;;3.78;92.71
33845;BME280;20145;43.118;25.694;2023-01-13T04:54:09;100135.97;;;3.76;93.49
33845;BME280;20145;43.118;25.694;2023-01-13T04:56:35;100125.53;;;3.67;92.73
33845;BME280;20145;43.118;25.694;2023-01-13T04:59:01;100138.59;;;3.78;92.82
33845;BME280;20145;43.118;25.694;2023-01-13T05:01:26;100134.41;;;3.80;92.31
33845;BME280;20145;43.118;25.694;2023-01-13T05:03:52;100141.97;;;3.77;92.96
33845;BME280;20145;43.118;25.694;2023-01-13T05:06:18;100138.50;;;3.75;92.19
33845;BME280;20145;43.118;25.694;2023-01-13T05:08:43;100137.66;;;3.74;92.23
33845;BME280;20145;43.118;25.694;2023-01-13T05:11:09;100143.63;;;3.76;92.59
33845;BME280;20145;43.118;25.694;2023-01-13T05:13:53;100143.63;;;3.75;91.46
33845;BME280;20145;43.118;25.694;2023-01-13T05:16:37;100137.53;;;3.71;91.75
33845;BME280;20145;43.118;25.694;2023-01-13T05:19:21;100135.81;;;3.70;92.47
33845;BME280;20145;43.118;25.694;2023-01-13T05:21:47;100143.53;;;3.72;92.50
33845;BME280;20145;43.118;25.694;2023-01-13T05:24:31;100139.84;;;3.62;92.40
33845;BME280;20145;43.118;25.694;2023-01-13T05:27:15;100146.50;;;3.57;92.65
33845;BME280;20145;43.118;25.694;2023-01-13T05:29:40;100145.66;;;3.56;92.80
33845;BME280;20145;43.118;25.694;2023-01-13T05:32:06;100146.50;;;3.57;93.86
33845;BME280;20145;43.118;25.694;2023-01-13T05:34:33;100137.97;;;3.55;93.21
33845;BME280;20145;43.118;25.694;2023-01-13T05:36:59;100139.75;;;3.57;93.76
33845;BME280;20145;43.118;25.694;2023-01-13T05:39:26;100145.78;;;3.61;93.57
33845;BME280;20145;43.118;25.694;2023-01-13T05:41:51;100146.66;;;3.62;94.27
33845;BME280;20145;43.118;25.694;2023-01-13T05:44:35;100144.94;;;3.61;93.91
33845;BME280;20145;43.118;25.694;2023-01-13T05:47:01;100150.59;;;3.52;93.92
33845;BME280;20145;43.118;25.694;2023-01-13T05:49:26;100151.34;;;3.48;93.35
33845;BME280;20145;43.118;25.694;2023-01-13T05:51:52;100151.34;;;3.48;93.72
33845;BME280;20145;43.118;25.694;2023-01-13T05:54:17;100151.22;;;3.43;94.17
33845;BME280;20145;43.118;25.694;2023-01-13T05:56:43;100147.09;;;3.47;94.53
33845;BME280;20145;43.118;25.694;2023-01-13T05:59:08;100148.03;;;3.50;94.51
33845;BME280;20145;43.118;25.694;2023-01-13T06:01:34;100150.66;;;3.53;95.28
33845;BME280;20145;43.118;25.694;2023-01-13T06:04:01;100155.16;;;3.62;95.44
33845;BME280;20145;43.118;25.694;2023-01-13T06:06:27;100154.44;;;3.66;95.21
33845;BME280;20145;43.118;25.694;2023-01-13T06:08:52;100157.16;;;3.72;94.01
33845;BME280;20145;43.118;25.694;2023-01-13T06:11:18;100167.31;;;3.71;94.64
33845;BME280;20145;43.118;25.694;2023-01-13T06:13:43;100163.25;;;3.77;94.73
33845;BME280;20145;43.118;25.694;2023-01-13T06:16:09;100158.94;;;3.75;94.11
33845;BME280;20145;43.118;25.694;2023-01-13T06:18:34;100164.25;;;3.83;93.63
33845;BME280;20145;43.118;25.694;2023-01-13T06:21:00;100167.69;;;3.85;93.79
33845;BME280;20145;43.118;25.694;2023-01-13T06:23:26;100172.84;;;3.86;94.24
33845;BME280;20145;43.118;25.694;2023-01-13T06:26:03;100168.75;;;3.93;93.92
33845;BME280;20145;43.118;25.694;2023-01-13T06:28:32;100172.28;;;3.96;92.62
33845;BME280;20145;43.118;25.694;2023-01-13T06:30:59;100174.22;;;4.05;93.17
33845;BME280;20145;43.118;25.694;2023-01-13T06:33:33;100175.94;;;4.06;93.54
33845;BME280;20145;43.118;25.694;2023-01-13T06:36:05;100176.06;;;4.11;93.28
33845;BME280;20145;43.118;25.694;2023-01-13T06:38:33;100177.06;;;4.16;93.07
33845;BME280;20145;43.118;25.694;2023-01-13T06:41:01;100172.94;;;4.22;93.54
33845;BME280;20145;43.118;25.694;2023-01-13T06:43:27;100175.63;;;4.27;92.28
33845;BME280;20145;43.118;25.694;2023-01-13T06:45:54;100174.84;;;4.30;92.62
33845;BME280;20145;43.118;25.694;2023-01-13T06:48:26;100172.28;;;4.30;92.28
33845;BME280;20145;43.118;25.694;2023-01-13T06:50:52;100174.84;;;4.30;91.94
33845;BME280;20145;43.118;25.694;2023-01-13T06:53:19;100173.31;;;4.36;91.03
33845;BME280;20145;43.118;25.694;2023-01-13T06:55:44;100168.69;;;4.23;91.27
33845;BME280;20145;43.118;25.694;2023-01-13T06:58:10;100180.53;;;4.19;91.91
33845;BME280;20145;43.118;25.694;2023-01-13T07:00:35;100170.41;;;4.22;92.03
33845;BME280;20145;43.118;25.694;2023-01-13T07:03:19;100176.22;;;4.18;91.89
33845;BME280;20145;43.118;25.694;2023-01-13T07:05:53;100179.69;;;4.20;91.50
33845;BME280;20145;43.118;25.694;2023-01-13T07:08:19;100182.53;;;4.31;90.70
33845;BME280;20145;43.118;25.694;2023-01-13T07:10:45;100181.16;;;4.44;91.14
33845;BME280;20145;43.118;25.694;2023-01-13T07:13:10;100194.22;;;4.55;90.27
33845;BME280;20145;43.118;25.694;2023-01-13T07:16:00;100176.22;;;4.52;89.22
33845;BME280;20145;43.118;25.694;2023-01-13T07:18:28;100188.22;;;4.54;88.76
33845;BME280;20145;43.118;25.694;2023-01-13T07:21:00;100192.84;;;4.69;89.82
33845;BME280;20145;43.118;25.694;2023-01-13T07:23:27;100197.91;;;4.67;89.99
33845;BME280;20145;43.118;25.694;2023-01-13T07:25:55;100192.78;;;4.66;89.52
33845;BME280;20145;43.118;25.694;2023-01-13T07:28:20;100195.28;;;4.64;89.75
33845;BME280;20145;43.118;25.694;2023-01-13T07:30:46;100191.09;;;4.66;90.08
33845;BME280;20145;43.118;25.694;2023-01-13T07:33:12;100200.63;;;4.74;90.02
33845;BME280;20145;43.118;25.694;2023-01-13T07:35:37;100192.59;;;4.58;90.00
33845;BME280;20145;43.118;25.694;2023-01-13T07:38:03;100201.91;;;4.56;91.01
33845;BME280;20145;43.118;25.694;2023-01-13T07:40:29;100194.44;;;4.64;90.98
33845;BME280;20145;43.118;25.694;2023-01-13T07:42:55;100206.44;;;4.68;91.23
33845;BME280;20145;43.118;25.694;2023-01-13T07:45:39;100192.47;;;4.54;91.67
33845;BME280;20145;43.118;25.694;2023-01-13T07:48:04;100213.16;;;4.63;91.78
33845;BME280;20145;43.118;25.694;2023-01-13T07:50:30;100200.44;;;4.66;91.19
33845;BME280;20145;43.118;25.694;2023-01-13T07:52:58;100197.56;;;4.52;91.94
33845;BME280;20145;43.118;25.694;2023-01-13T07:55:24;100212.69;;;4.46;92.38
33845;BME280;20145;43.118;25.694;2023-01-13T07:57:50;100215.25;;;4.46;92.09
33845;BME280;20145;43.118;25.694;2023-01-13T08:00:16;100225.81;;;4.58;93.12
33845;BME280;20145;43.118;25.694;2023-01-13T08:02:41;100218.53;;;4.40;92.29
33845;BME280;20145;43.118;25.694;2023-01-13T08:05:07;100224.66;;;4.47;93.12
33845;BME280;20145;43.118;25.694;2023-01-13T08:07:33;100223.75;;;4.45;92.77
33845;BME280;20145;43.118;25.694;2023-01-13T08:09:59;100216.16;;;4.48;92.20
33845;BME280;20145;43.118;25.694;2023-01-13T08:12:24;100218.50;;;4.39;92.87
33845;BME280;20145;43.118;25.694;2023-01-13T08:15:09;100208.31;;;4.40;93.06
33845;BME280;20145;43.118;25.694;2023-01-13T08:17:35;100219.91;;;4.28;93.34
33845;BME280;20145;43.118;25.694;2023-01-13T08:20:02;100223.56;;;4.37;92.69
33845;BME280;20145;43.118;25.694;2023-01-13T08:22:28;100227.88;;;4.40;93.27
33845;BME280;20145;43.118;25.694;2023-01-13T08:24:55;100232.13;;;4.39;92.92
33845;BME280;20145;43.118;25.694;2023-01-13T08:27:21;100234.25;;;4.56;92.73
33845;BME280;20145;43.118;25.694;2023-01-13T08:29:47;100235.41;;;4.67;92.91
33845;BME280;20145;43.118;25.694;2023-01-13T08:32:12;100237.03;;;4.63;92.36
33845;BME280;20145;43.118;25.694;2023-01-13T08:34:38;100234.41;;;4.62;91.25
33845;BME280;20145;43.118;25.694;2023-01-13T08:37:03;100237.44;;;4.47;91.85
33845;BME280;20145;43.118;25.694;2023-01-13T08:39:29;100232.25;;;4.44;92.89
33845;BME280;20145;43.118;25.694;2023-01-13T08:41:55;100238.38;;;4.51;92.28
33845;BME280;20145;43.118;25.694;2023-01-13T08:44:29;100230.69;;;4.49;92.28
33845;BME280;20145;43.118;25.694;2023-01-13T08:46:56;100223.88;;;4.50;92.44
33845;BME280;20145;43.118;25.694;2023-01-13T08:49:22;100235.97;;;4.55;92.42
33845;BME280;20145;43.118;25.694;2023-01-13T08:51:49;100229.16;;;4.56;92.71
33845;BME280;20145;43.118;25.694;2023-01-13T08:54:15;100235.03;;;4.53;92.00
33845;BME280;20145;43.118;25.694;2023-01-13T08:56:42;100227.47;;;4.56;91.00
33845;BME280;20145;43.118;25.694;2023-01-13T08:59:11;100222.91;;;4.44;91.75
33845;BME280;20145;43.118;25.694;2023-01-13T09:01:37;100220.34;;;4.44;91.21
33845;BME280;20145;43.118;25.694;2023-01-13T09:04:04;100216.84;;;4.41;91.23
33845;BME280;20145;43.118;25.694;2023-01-13T09:06:31;100219.50;;;4.44;92.54
33845;BME280;20145;43.118;25.694;2023-01-13T09:08:57;100214.19;;;4.38;92.31
33845;BME280;20145;43.118;25.694;2023-01-13T09:11:30;100210.00;;;4.40;92.09
33845;BME280;20145;43.118;25.694;2023-01-13T09:14:19;100204.19;;;4.45;92.44
33845;BME280;20145;43.118;25.694;2023-01-13T09:16:45;100209.06;;;4.71;91.54
33845;BME280;20145;43.118;25.694;2023-01-13T09:19:11;100210.44;;;4.93;91.26
33845;BME280;20145;43.118;25.694;2023-01-13T09:21:36;100204.19;;;5.17;90.12
33845;BME280;20145;43.118;25.694;2023-01-13T09:24:02;100208.09;;;5.40;89.03
33845;BME280;20145;43.118;25.694;2023-01-13T09:26:28;100199.13;;;5.57;87.72
33845;BME280;20145;43.118;25.694;2023-01-13T09:28:53;100202.81;;;5.72;86.62
33845;BME280;20145;43.118;25.694;2023-01-13T09:31:19;100199.84;;;5.52;86.31
33845;BME280;20145;43.118;25.694;2023-01-13T09:33:45;100200.38;;;5.76;86.21
33845;BME280;20145;43.118;25.694;2023-01-13T09:36:28;100194.34;;;5.33;86.46
33845;BME280;20145;43.118;25.694;2023-01-13T09:38:54;100195.41;;;5.43;87.74
33845;BME280;20145;43.118;25.694;2023-01-13T09:41:25;100192.25;;;5.56;87.07
33845;BME280;20145;43.118;25.694;2023-01-13T09:44:24;100194.75;;;5.53;87.56
33845;BME280;20145;43.118;25.694;2023-01-13T09:46:56;100197.63;;;5.28;88.94
33845;BME280;20145;43.118;25.694;2023-01-13T09:49:34;100187.59;;;4.99;88.91
33845;BME280;20145;43.118;25.694;2023-01-13T09:54:37;100178.19;;;4.62;90.94
33845;BME280;20145;43.118;25.694;2023-01-13T09:57:13;100177.34;;;4.98;90.49
33845;BME280;20145;43.118;25.694;2023-01-13T09:59:39;100179.34;;;5.11;90.54
33845;BME280;20145;43.118;25.694;2023-01-13T10:05:21;100164.19;;;5.19;91.23
33845;BME280;20145;43.118;25.694;2023-01-13T10:07:53;100174.47;;;5.23;90.53
33845;BME280;20145;43.118;25.694;2023-01-13T10:12:56;100167.53;;;5.16;90.26
33845;BME280;20145;43.118;25.694;2023-01-13T10:23:55;100165.50;;;5.41;89.69
33845;BME280;20145;43.118;25.694;2023-01-13T10:29:22;100156.06;;;5.40;90.20
33845;BME280;20145;43.118;25.694;2023-01-13T10:31:52;100158.56;;;4.97;90.29
33845;BME280;20145;43.118;25.694;2023-01-13T10:34:18;100156.75;;;5.31;90.85
33845;BME280;20145;43.118;25.694;2023-01-13T10:36:55;100156.91;;;5.39;89.77
33845;BME280;20145;43.118;25.694;2023-01-13T10:39:26;100156.88;;;5.37;90.05
33845;BME280;20145;43.118;25.694;2023-01-13T10:42:03;100153.50;;;5.40;90.83
33845;BME280;20145;43.118;25.694;2023-01-13T10:44:29;100144.13;;;5.39;90.52
33845;BME280;20145;43.118;25.694;2023-01-13T10:46:57;100135.88;;;5.52;89.96
33845;BME280;20145;43.118;25.694;2023-01-13T10:49:36;100149.31;;;5.42;90.10
33845;BME280;20145;43.118;25.694;2023-01-13T10:52:24;100145.88;;;5.41;89.46
33845;BME280;20145;43.118;25.694;2023-01-13T10:54:51;100137.53;;;5.50;89.92
33845;BME280;20145;43.118;25.694;2023-01-13T10:57:25;100138.66;;;5.63;89.59
33845;BME280;20145;43.118;25.694;2023-01-13T10:59:51;100138.66;;;5.64;90.25
33845;BME280;20145;43.118;25.694;2023-01-13T11:02:19;100124.47;;;5.80;88.87
33845;BME280;20145;43.118;25.694;2023-01-13T11:12:40;100124.38;;;5.75;89.36
33845;BME280;20145;43.118;25.694;2023-01-13T11:15:11;100125.28;;;5.77;88.63
33845;BME280;20145;43.118;25.694;2023-01-13T11:21:03;100117.53;;;5.76;88.63
33845;BME280;20145;43.118;25.694;2023-01-13T11:23:38;100108.63;;;5.55;88.25
33845;BME280;20145;43.118;25.694;2023-01-13T11:26:13;100101.88;;;5.59;90.20
33845;BME280;20145;43.118;25.694;2023-01-13T11:28:43;100097.88;;;5.73;89.10
33845;BME280;20145;43.118;25.694;2023-01-13T11:36:29;100095.13;;;6.08;89.19
33845;BME280;20145;43.118;25.694;2023-01-13T11:39:11;100102.94;;;6.17;88.50
33845;BME280;20145;43.118;25.694;2023-01-13T11:41:44;100091.22;;;6.30;88.99
33845;BME280;20145;43.118;25.694;2023-01-13T11:44:38;100094.50;;;6.21;88.06
33845;BME280;20145;43.118;25.694;2023-01-13T11:47:09;100091.94;;;6.23;88.40
33845;BME280;20145;43.118;25.694;2023-01-13T11:49:36;100094.69;;;6.32;88.27
33845;BME280;20145;43.118;25.694;2023-01-13T11:52:12;100083.63;;;6.35;87.58
33845;BME280;20145;43.118;25.694;2023-01-13T12:11:00;100064.66;;;6.84;86.85
33845;BME280;20145;43.118;25.694;2023-01-13T12:14:00;100067.81;;;6.65;86.48
33845;BME280;20145;43.118;25.694;2023-01-13T12:16:30;100059.50;;;6.80;86.91
33845;BME280;20145;43.118;25.694;2023-01-13T12:21:27;100061.34;;;6.91;87.17
33845;BME280;20145;43.118;25.694;2023-01-13T12:26:28;100061.16;;;6.76;85.74
33845;BME280;20145;43.118;25.694;2023-01-13T12:29:14;100068.03;;;6.80;86.54
33845;BME280;20145;43.118;25.694;2023-01-13T12:31:40;100063.53;;;6.64;86.51
33845;BME280;20145;43.118;25.694;2023-01-13T12:37:07;100078.84;;;6.59;86.87
33845;BME280;20145;43.118;25.694;2023-01-13T12:45:27;100074.44;;;6.49;88.08
33845;BME280;20145;43.118;25.694;2023-01-13T12:47:56;100069.31;;;6.49;89.65
33845;BME280;20145;43.118;25.694;2023-01-13T12:55:24;100077.84;;;6.51;89.39
33845;BME280;20145;43.118;25.694;2023-01-13T13:01:00;100069.34;;;6.52;89.25
33845;BME280;20145;43.118;25.694;2023-01-13T13:03:35;100076.28;;;6.59;89.54
33845;BME280;20145;43.118;25.694;2023-01-13T13:11:45;100077.03;;;6.52;89.15
33845;BME280;20145;43.118;25.694;2023-01-13T13:19:57;100074.41;;;6.46;88.82
33845;BME280;20145;43.118;25.694;2023-01-13T13:30:00;100085.63;;;6.56;88.72
33845;BME280;20145;43.118;25.694;2023-01-13T13:40:46;100079.78;;;6.64;88.63
33845;BME280;20145;43.118;25.694;2023-01-13T13:43:38;100078.88;;;6.61;88.98
33845;BME280;20145;43.118;25.694;2023-01-13T13:46:34;100085.63;;;6.56;89.87
33845;BME280;20145;43.118;25.694;2023-01-13T13:49:13;100095.03;;;6.55;89.05
33845;BME280;20145;43.118;25.694;2023-01-13T13:52:00;100085.50;;;6.48;88.50
33845;BME280;20145;43.118;25.694;2023-01-13T13:54:27;100091.50;;;6.47;89.04
33845;BME280;20145;43.118;25.694;2023-01-13T13:56:55;100092.34;;;6.46;89.34
33845;BME280;20145;43.118;25.694;2023-01-13T13:59:24;100097.56;;;6.54;89.65
33845;BME280;20145;43.118;25.694;2023-01-13T14:01:53;100094.84;;;6.43;89.53
33845;BME280;20145;43.118;25.694;2023-01-13T14:04:37;100108.50;;;6.42;89.81
33845;BME280;20145;43.118;25.694;2023-01-13T14:07:15;100103.34;;;6.42;90.01
33845;BME280;20145;43.118;25.694;2023-01-13T14:09:53;100108.50;;;6.42;90.95
33845;BME280;20145;43.118;25.694;2023-01-13T14:12:21;100105.03;;;6.38;91.73
33845;BME280;20145;43.118;25.694;2023-01-13T14:14:48;100109.22;;;6.33;90.91
33845;BME280;20145;43.118;25.694;2023-01-13T14:17:27;100109.06;;;6.24;91.94
33845;BME280;20145;43.118;25.694;2023-01-13T14:20:03;100108.25;;;6.28;91.95
33845;BME280;20145;43.118;25.694;2023-01-13T14:22:30;100112.56;;;6.31;92.71
33845;BME280;20145;43.118;25.694;2023-01-13T14:24:56;100103.97;;;6.27;93.43
33845;BME280;20145;43.118;25.694;2023-01-13T14:27:23;100118.47;;;6.25;93.09
33845;BME280;20145;43.118;25.694;2023-01-13T14:29:53;100104.75;;;6.21;92.17
33845;BME280;20145;43.118;25.694;2023-01-13T14:32:22;100083.22;;;6.10;92.96
33845;BME280;20145;43.118;25.694;2023-01-13T14:34:50;100116.53;;;6.12;92.58
33845;BME280;20145;43.118;25.694;2023-01-13T14:37:32;100105.41;;;6.11;93.20
33845;BME280;20145;43.118;25.694;2023-01-13T14:39:59;100108.88;;;6.15;92.61
33845;BME280;20145;43.118;25.694;2023-01-13T14:42:25;100113.91;;;6.07;93.79
33845;BME280;20145;43.118;25.694;2023-01-13T14:44:53;100106.97;;;6.01;93.99
33845;BME280;20145;43.118;25.694;2023-01-13T14:52:33;100108.84;;;6.12;93.49
33845;BME280;20145;43.118;25.694;2023-01-13T14:57:34;100103.72;;;6.10;93.93
33845;BME280;20145;43.118;25.694;2023-01-13T15:10:24;100101.00;;;6.04;94.21
33845;BME280;20145;43.118;25.694;2023-01-13T15:12:53;100101.00;;;6.04;94.70
33845;BME280;20145;43.118;25.694;2023-01-13T15:17:55;100107.75;;;5.97;94.73
33845;BME280;20145;43.118;25.694;2023-01-13T15:20:22;100108.53;;;5.93;95.28
33845;BME280;20145;43.118;25.694;2023-01-13T15:22:49;100100.72;;;5.89;95.20
33845;BME280;20145;43.118;25.694;2023-01-13T15:25:15;100099.81;;;5.85;94.88
33845;BME280;20145;43.118;25.694;2023-01-13T15:27:42;100107.50;;;5.87;95.26
33845;BME280;20145;43.118;25.694;2023-01-13T15:30:19;100105.84;;;5.89;95.20
33845;BME280;20145;43.118;25.694;2023-01-13T15:32:45;100114.38;;;5.89;95.11
33845;BME280;20145;43.118;25.694;2023-01-13T15:35:15;100110.16;;;5.91;94.76
33845;BME280;20145;43.118;25.694;2023-01-13T15:37:42;100124.97;;;6.06;95.41
33845;BME280;20145;43.118;25.694;2023-01-13T15:40:14;100116.47;;;6.09;94.68
33845;BME280;20145;43.118;25.694;2023-01-13T15:42:39;100119.22;;;6.19;94.98
33845;BME280;20145;43.118;25.694;2023-01-13T15:45:24;100121.88;;;6.25;95.04
33845;BME280;20145;43.118;25.694;2023-01-13T15:48:08;100115.13;;;6.29;94.20